createdAt,value
2022-11-12T00:02:15.329Z,52.6
2022-11-12T00:07:33.645Z,53.1
2022-11-12T00:12:52.263Z,52.8
2022-11-12T00:18:11.044Z,53.8
2022-11-12T00:23:29.248Z,53.2
2022-11-12T00:28:47.557Z,53
2022-11-12T00:34:05.776Z,53.2
2022-11-12T00:39:24.264Z,53.5
2022-11-12T00:44:43.107Z,53.4
2022-11-12T00:50:01.274Z,54.1
2022-11-12T00:55:19.762Z,53.9
2022-11-12T01:00:39.063Z,53.9
2022-11-12T01:05:57.582Z,53.4
2022-11-12T01:11:16.072Z,53.4
2022-11-12T01:16:34.670Z,53.7
2022-11-12T01:21:52.618Z,53.1
2022-11-12T01:27:11.108Z,54.3
2022-11-12T01:32:29.460Z,53.6
2022-11-12T01:37:47.688Z,54.5
2022-11-12T01:43:06.447Z,53.8
2022-11-12T01:48:26.884Z,54.4
2022-11-12T01:53:45.483Z,54.2
2022-11-12T01:59:03.984Z,53.7
2022-11-12T02:04:22.513Z,53.8
2022-11-12T02:09:41.012Z,53.9
2022-11-12T02:14:59.788Z,54.1
2022-11-12T02:20:18.901Z,53.5
2022-11-12T02:25:37.719Z,53.7
2022-11-12T02:30:55.929Z,53.8
2022-11-12T02:36:14.189Z,54
2022-11-12T02:41:32.738Z,53.7
2022-11-12T02:46:51.225Z,54.5
2022-11-12T02:52:09.831Z,53.9
2022-11-12T02:57:28.054Z,54.5
2022-11-12T03:02:46.554Z,53.6
2022-11-12T03:08:05.132Z,54.1
2022-11-12T03:13:23.359Z,54.4
2022-11-12T03:18:42.130Z,53.7
2022-11-12T03:24:00.734Z,54.5
2022-11-12T03:29:19.236Z,53.6
2022-11-12T03:34:37.455Z,54
2022-11-12T03:39:56.304Z,53.7
2022-11-12T03:45:14.564Z,54.4
2022-11-12T03:50:32.768Z,54.4
2022-11-12T03:55:51.259Z,53.6
2022-11-12T04:01:09.710Z,53.6
2022-11-12T04:06:28.186Z,54.2
2022-11-12T04:11:47.042Z,54
2022-11-12T04:17:05.251Z,54.5
2022-11-12T04:22:23.744Z,54.4
2022-11-12T04:27:42.289Z,53.7
2022-11-12T04:33:01.103Z,53.5
2022-11-12T04:38:19.604Z,53.6
2022-11-12T04:43:37.790Z,53.7
2022-11-12T04:48:56.042Z,53.4
2022-11-12T04:54:13.977Z,53.7
2022-11-12T04:59:33.026Z,53.6
2022-11-12T05:04:51.202Z,53.5
2022-11-12T05:10:09.721Z,54.6
2022-11-12T05:15:28.600Z,53.4
2022-11-12T05:20:47.398Z,53.5
2022-11-12T05:26:05.616Z,53.6
2022-11-12T05:31:24.204Z,54.3
2022-11-12T05:36:42.087Z,53.2
2022-11-12T05:42:14.825Z,53.6
2022-11-12T05:47:33.352Z,53.7
2022-11-12T05:52:51.517Z,53.9
2022-11-12T05:58:10.299Z,54.4
2022-11-12T06:03:28.847Z,54.2
2022-11-12T06:08:47.350Z,53.8
2022-11-12T06:14:06.122Z,53.3
2022-11-12T06:19:24.457Z,54.6
2022-11-12T06:24:42.339Z,54.8
2022-11-12T06:30:00.820Z,53.9
2022-11-12T06:35:19.409Z,54
2022-11-12T06:40:38.221Z,53.3
2022-11-12T06:45:56.441Z,54.2
2022-11-12T06:51:15.322Z,54.1
2022-11-12T06:56:33.480Z,53.9
2022-11-12T07:01:51.574Z,53.3
2022-11-12T07:07:12.171Z,53.9
2022-11-12T07:12:30.684Z,53.2
2022-11-12T07:17:49.165Z,53.5
2022-11-12T07:23:07.924Z,53.6
2022-11-12T07:28:11.159Z,53.8
2022-11-12T07:33:29.070Z,53
2022-11-12T07:38:47.926Z,52.8
2022-11-12T07:44:06.099Z,52.5
2022-11-12T07:49:08.978Z,53.7
2022-11-12T07:54:27.474Z,53.6
2022-11-12T07:59:47.486Z,53.1
2022-11-12T08:05:21.434Z,53
2022-11-12T08:10:40.039Z,53.3
2022-11-12T08:15:58.207Z,53.9
2022-11-12T08:21:16.702Z,53.4
2022-11-12T08:26:35.563Z,52.1
2022-11-12T08:31:53.791Z,52.5
2022-11-12T08:37:11.994Z,52.3
2022-11-12T08:42:31.143Z,50.2
2022-11-12T08:47:55.200Z,51
2022-11-12T08:53:13.992Z,52.3
2022-11-12T08:58:32.900Z,52.1
2022-11-12T09:03:51.697Z,51
2022-11-12T09:09:10.201Z,51.9
2022-11-12T09:14:28.997Z,52.3
2022-11-12T09:19:47.494Z,51.4
2022-11-12T09:25:05.708Z,51.8
2022-11-12T09:30:24.324Z,50.7
2022-11-12T09:35:42.784Z,49.7
2022-11-12T09:41:01.547Z,49.4
2022-11-12T09:46:28.943Z,49.8
2022-11-12T09:51:47.442Z,49
2022-11-12T09:57:05.925Z,48.9
2022-11-12T10:02:24.856Z,48.7
2022-11-12T10:07:43.074Z,49.6
2022-11-12T10:13:01.563Z,48.9
2022-11-12T10:18:20.030Z,49
2022-11-12T10:23:38.478Z,49.7
2022-11-12T10:28:56.993Z,50
2022-11-12T10:34:15.857Z,49.9
2022-11-12T10:39:34.356Z,49.5
2022-11-12T10:44:52.610Z,49.6
2022-11-12T10:50:11.253Z,49.4
2022-11-12T10:55:29.480Z,49.5
2022-11-12T11:00:48.253Z,50.4
2022-11-12T11:06:06.805Z,50.7
2022-11-12T11:11:25.254Z,50.4
2022-11-12T11:16:43.183Z,50.3
2022-11-12T11:22:01.756Z,49.9
2022-11-12T11:27:20.071Z,49.9
2022-11-12T11:32:38.623Z,49.9
2022-11-12T11:37:59.577Z,51.3
2022-11-12T11:43:18.017Z,51.4
2022-11-12T11:48:36.209Z,51.8
2022-11-12T11:53:54.482Z,51.1
2022-11-12T11:59:12.649Z,50.6
2022-11-12T12:04:31.134Z,51.1
2022-11-12T12:09:50.019Z,51.1
2022-11-12T12:14:53.940Z,51.3
2022-11-12T12:20:13.108Z,50.7
2022-11-12T12:25:17.748Z,50.1
2022-11-12T12:30:36.526Z,49.9
2022-11-12T12:35:54.738Z,52.2
2022-11-12T12:41:13.348Z,52
2022-11-12T12:46:31.827Z,52.4
2022-11-12T12:51:56.687Z,52.1
2022-11-12T12:57:15.582Z,53.1
2022-11-12T13:02:34.029Z,52.9
2022-11-12T13:07:52.241Z,52.3
2022-11-12T13:13:10.600Z,52.5
2022-11-12T13:18:29.153Z,53
2022-11-12T13:23:47.354Z,53.1
2022-11-12T13:29:06.271Z,52.6
2022-11-12T13:34:24.792Z,52.5
2022-11-12T13:39:27.383Z,52.3
2022-11-12T13:44:30.841Z,52.3
2022-11-12T13:49:49.095Z,52.7
2022-11-12T13:55:07.573Z,53.4
2022-11-12T14:00:25.860Z,53.6
2022-11-12T14:05:44.295Z,53.5
2022-11-12T14:11:02.830Z,53.1
2022-11-12T14:16:21.712Z,52.9
2022-11-12T14:21:40.188Z,53.2
2022-11-12T14:26:58.933Z,52.4
2022-11-12T14:32:17.684Z,52.1
2022-11-12T14:37:44.200Z,52
2022-11-12T14:42:47.337Z,51.8
2022-11-12T14:48:06.203Z,52.5
2022-11-12T14:53:27.546Z,52.2
2022-11-12T14:58:45.990Z,51.8
2022-11-12T15:04:04.537Z,52.5
2022-11-12T15:09:23.290Z,52.4
2022-11-12T15:14:41.770Z,53
2022-11-12T15:20:01.951Z,52
2022-11-12T15:25:20.879Z,52.5
2022-11-12T15:30:39.058Z,52.3
2022-11-12T15:35:42.356Z,52.1
2022-11-12T15:41:00.862Z,52.9
2022-11-12T15:46:19.348Z,52
2022-11-12T15:51:37.888Z,52.8
2022-11-12T15:56:56.663Z,52.3
2022-11-12T16:02:15.442Z,52.1
2022-11-12T16:07:34.326Z,53.5
2022-11-12T16:12:52.821Z,53.9
2022-11-12T16:18:11.296Z,54.4
2022-11-12T16:23:30.907Z,54
2022-11-12T16:28:48.817Z,53.4
2022-11-12T16:34:07.540Z,53.8
2022-11-12T16:39:26.410Z,53.2
2022-11-12T16:44:44.936Z,53.2
2022-11-12T16:50:03.703Z,52.6
2022-11-12T16:55:22.412Z,53.2
2022-11-12T17:00:41.102Z,52.9
2022-11-12T17:05:59.619Z,52
2022-11-12T17:11:18.153Z,52.7
2022-11-12T17:16:36.672Z,51.8
2022-11-12T17:21:55.439Z,51.8
2022-11-12T17:27:14.280Z,52.5
2022-11-12T17:32:33.058Z,51.8
2022-11-12T17:37:51.839Z,52.2
2022-11-12T17:43:10.566Z,52.5
2022-11-12T17:48:28.528Z,51.9
2022-11-12T17:53:47.031Z,52.6
2022-11-12T17:59:05.684Z,52.7
2022-11-12T18:04:30.716Z,52.5
2022-11-12T18:09:48.931Z,51.8
2022-11-12T18:15:07.200Z,51.9
2022-11-12T18:20:26.020Z,52.6
2022-11-12T18:25:44.506Z,51.8
2022-11-12T18:31:03.080Z,53
2022-11-12T18:36:21.556Z,51.9
2022-11-12T18:41:40.039Z,52.3
2022-11-12T18:46:58.953Z,52.7
2022-11-12T18:52:17.391Z,52.6
2022-11-12T18:57:35.606Z,52.6
2022-11-12T19:02:54.516Z,52.6
2022-11-12T19:08:12.833Z,52.1
2022-11-12T19:13:31.674Z,51.8
2022-11-12T19:18:49.962Z,52.3
2022-11-12T19:24:08.155Z,52.1
2022-11-12T19:29:26.918Z,51.7
2022-11-12T19:34:45.643Z,52.6
2022-11-12T19:40:03.891Z,52.3
2022-11-12T19:45:22.381Z,52.5
2022-11-12T19:50:41.257Z,51.6
2022-11-12T19:55:59.493Z,51.6
2022-11-12T20:01:18.201Z,51.6
2022-11-12T20:06:37.089Z,51.6
2022-11-12T20:11:55.338Z,51.5
2022-11-12T20:17:14.101Z,52.4
2022-11-12T20:22:33.871Z,51.9
2022-11-12T20:27:52.541Z,51.8
2022-11-12T20:33:11.295Z,53.4
2022-11-12T20:38:30.916Z,53.2
2022-11-12T20:43:49.444Z,52.4
2022-11-12T20:49:08.217Z,53.3
2022-11-12T20:54:27.126Z,53.1
2022-11-12T20:59:45.389Z,52.5
2022-11-12T21:05:03.957Z,52.6
2022-11-12T21:10:22.561Z,46.2
2022-11-12T21:15:40.781Z,49.6
2022-11-12T21:20:59.537Z,51
2022-11-12T21:26:18.154Z,51.2
2022-11-12T21:31:36.886Z,51.2
2022-11-12T21:36:55.370Z,52.1
2022-11-12T21:42:13.653Z,52.1
2022-11-12T21:47:32.097Z,51.4
2022-11-12T21:52:50.858Z,50.6
2022-11-12T21:58:09.436Z,51.5
2022-11-12T22:03:27.969Z,51.4
2022-11-12T22:08:46.191Z,51.9
2022-11-12T22:14:04.461Z,51.6
2022-11-12T22:19:22.949Z,52.1
2022-11-12T22:24:41.736Z,52.1
2022-11-12T22:30:00.059Z,52.5
2022-11-12T22:35:18.562Z,52.1
2022-11-12T22:40:37.046Z,52.1
2022-11-12T22:45:55.675Z,52.9
2022-11-12T22:51:14.163Z,53.1
2022-11-12T22:56:32.918Z,52.6
2022-11-12T23:01:52.041Z,53.2
2022-11-12T23:07:10.715Z,53.3
2022-11-12T23:12:29.216Z,52.8
2022-11-12T23:17:47.688Z,52.8
2022-11-12T23:23:05.913Z,53.5
2022-11-12T23:28:24.542Z,53
2022-11-12T23:33:43.535Z,53
2022-11-12T23:39:02.286Z,52.8
2022-11-12T23:44:20.222Z,52.8
2022-11-12T23:49:23.413Z,53.3
2022-11-12T23:54:41.856Z,54.6
